Time;durP1;ratioP1;P1;durP2;ratioP2;P2;SDS_P1;SDS_P2;PMS_P1;PMS_P2;Temp;Humidity;BMP_temperature;BMP_pressure;BME280_temperature;BME280_humidity;BME280_pressure;Samples;Min_cycle;Max_cycle;Signal;HPM_P1;HPM_P2
2022/08/05 00:01:22;;;;;;;5.40;2.58;;;;;;;21.18;100.00;101483.22;5106138;27;20051;-60
2022/08/05 00:03:54;;;;;;;7.32;2.92;;;;;;;21.18;100.00;101471.72;5101830;27;20514;-59
2022/08/05 00:06:23;;;;;;;5.40;2.72;;;;;;;21.22;100.00;101471.09;5112372;27;20074;-58
2022/08/05 00:08:59;;;;;;;7.03;2.47;;;;;;;21.18;100.00;101480.53;5098335;27;20686;-60
2022/08/05 00:11:26;;;;;;;6.10;2.85;;;;;;;21.19;100.00;101495.53;5103138;27;20090;-59
2022/08/05 00:14:00;;;;;;;6.30;2.53;;;;;;;21.22;100.00;101497.78;5108833;27;20054;-61
2022/08/05 00:16:37;;;;;;;7.78;2.90;;;;;;;21.18;100.00;101501.06;5099028;27;20076;-60
2022/08/05 00:19:18;;;;;;;5.03;2.85;;;;;;;21.20;100.00;101486.50;5112445;27;20073;-59
2022/08/05 00:21:47;;;;;;;9.02;2.65;;;;;;;21.14;100.00;101482.78;5101011;27;20051;-60
2022/08/05 00:24:13;;;;;;;7.15;2.65;;;;;;;21.13;100.00;101480.34;5106602;27;20054;-60
2022/08/05 00:26:49;;;;;;;7.63;2.88;;;;;;;21.13;100.00;101472.34;5107438;27;20388;-60
2022/08/05 00:29:19;;;;;;;4.97;2.10;;;;;;;21.10;100.00;101476.19;5115140;27;20128;-60
2022/08/05 00:31:50;;;;;;;6.63;2.63;;;;;;;21.10;100.00;101484.22;5109720;27;20051;-60
2022/08/05 00:34:44;;;;;;;6.93;2.72;;;;;;;21.10;100.00;101486.88;5115617;27;20054;-59
2022/08/05 00:37:30;;;;;;;6.63;2.90;;;;;;;21.06;100.00;101477.63;5106769;27;20059;-60
2022/08/05 00:40:18;;;;;;;6.43;2.67;;;;;;;21.02;100.00;101468.38;5111314;27;20054;-61
2022/08/05 00:42:59;;;;;;;5.67;2.33;;;;;;;21.01;100.00;101471.25;5112745;27;20047;-60
2022/08/05 00:45:26;;;;;;;9.65;2.55;;;;;;;20.94;100.00;101455.22;5108335;27;20303;-60
2022/08/05 00:48:06;;;;;;;8.52;2.95;;;;;;;20.88;100.00;101462.19;5092382;28;20052;-60
2022/08/05 00:50:32;;;;;;;;;;;;;;;20.82;100.00;101460.31;5102232;27;20479;-60
2022/08/05 00:52:59;;;;;;;7.75;2.95;;;;;;;20.80;100.00;101461.53;5111766;27;19923;-60
2022/08/05 00:55:27;;;;;;;9.15;3.45;;;;;;;20.76;100.00;101462.94;5109304;27;20134;-60
2022/08/05 00:58:09;;;;;;;8.98;3.28;;;;;;;20.79;100.00;101474.03;5107632;27;20051;-60
2022/08/05 01:00:37;;;;;;;9.50;2.90;;;;;;;20.78;100.00;101474.22;5105964;27;20416;-60
2022/08/05 01:03:04;;;;;;;5.68;2.58;;;;;;;20.79;100.00;101474.03;5101460;27;20050;-60
2022/08/05 01:05:33;;;;;;;7.72;3.38;;;;;;;20.79;100.00;101479.34;5105716;27;20123;-56
2022/08/05 01:08:00;;;;;;;7.82;2.80;;;;;;;20.73;100.00;101480.97;5102449;27;20739;-60
2022/08/05 01:10:59;;;;;;;10.20;3.60;;;;;;;20.69;100.00;101479.72;5114421;27;20042;-59
2022/08/05 01:13:53;;;;;;;5.50;2.25;;;;;;;20.69;100.00;101468.25;5106160;27;20062;-59
2022/08/05 01:16:50;;;;;;;7.05;3.03;;;;;;;20.68;100.00;101461.25;5110980;27;20123;-61
2022/08/05 01:19:20;;;;;;;7.95;3.28;;;;;;;20.60;100.00;101472.09;5089183;27;20422;-61
2022/08/05 01:22:20;;;;;;;7.00;3.20;;;;;;;20.56;100.00;101466.28;5105776;27;20055;-61
2022/08/05 01:25:11;;;;;;;6.10;2.97;;;;;;;20.50;100.00;101480.41;5104044;27;20055;-61
2022/08/05 01:28:06;;;;;;;5.72;3.58;;;;;;;20.52;100.00;101487.22;5114898;27;20058;-61
2022/08/05 01:30:38;;;;;;;9.85;3.47;;;;;;;20.55;100.00;101488.66;5067854;27;20051;-61
2022/08/05 01:33:18;;;;;;;6.00;3.25;;;;;;;20.49;100.00;101494.75;5127021;27;20589;-61
2022/08/05 01:35:48;;;;;;;7.47;3.20;;;;;;;20.52;100.00;101497.88;5100483;27;20583;-59
2022/08/05 01:38:19;;;;;;;7.65;3.22;;;;;;;20.46;100.00;101498.63;5105585;27;20169;-62
2022/08/05 01:40:56;;;;;;;7.78;3.75;;;;;;;20.48;100.00;101504.59;5116998;27;20043;-61
2022/08/05 01:43:23;;;;;;;8.43;3.25;;;;;;;20.47;100.00;101499.47;5123073;27;20585;-61
2022/08/05 01:45:52;;;;;;;4.65;2.85;;;;;;;20.43;100.00;101499.03;5095519;27;20051;-61
2022/08/05 01:48:24;;;;;;;9.20;3.28;;;;;;;20.45;100.00;101497.00;5092960;28;20047;-60
2022/08/05 01:50:54;;;;;;;9.52;3.38;;;;;;;20.46;100.00;101497.81;5107751;28;20047;-61
2022/08/05 01:53:22;;;;;;;9.05;3.05;;;;;;;20.47;100.00;101510.94;5098199;28;20499;-61
2022/08/05 01:56:10;;;;;;;5.65;3.10;;;;;;;20.39;100.00;101518.28;5104309;28;20055;-60
2022/08/05 01:58:39;;;;;;;8.23;3.88;;;;;;;20.40;100.00;101520.72;5096675;28;20314;-61
2022/08/05 02:01:13;;;;;;;7.55;3.55;;;;;;;20.35;100.00;101510.66;5096449;28;20738;-60
2022/08/05 02:03:45;;;;;;;7.93;3.60;;;;;;;20.38;100.00;101508.63;5101025;28;20050;-61
2022/08/05 02:06:12;;;;;;;8.95;3.55;;;;;;;20.31;100.00;101503.25;5102821;28;20056;-63
2022/08/05 02:08:59;;;;;;;5.67;3.17;;;;;;;20.31;100.00;101517.41;5113882;27;20051;-59
2022/08/05 02:11:50;;;;;;;11.57;3.83;;;;;;;20.34;100.00;101511.66;5103587;28;20394;-62
2022/08/05 02:14:29;;;;;;;6.85;3.42;;;;;;;20.40;100.00;101526.06;5094226;28;20358;-61
2022/08/05 02:17:04;;;;;;;7.68;3.47;;;;;;;20.42;100.00;101532.00;5100401;28;20047;-62
2022/08/05 02:19:34;;;;;;;6.00;3.42;;;;;;;20.40;100.00;101534.03;5109886;28;20063;-60
2022/08/05 02:22:15;;;;;;;8.93;3.65;;;;;;;20.35;100.00;101537.31;5107440;27;20755;-59
2022/08/05 02:25:03;;;;;;;8.88;3.30;;;;;;;20.41;100.00;101543.69;5087154;28;20134;-61
2022/08/05 02:27:34;;;;;;;7.68;3.42;;;;;;;20.45;100.00;101546.81;5088310;27;20051;-60
2022/08/05 02:30:23;;;;;;;7.57;3.25;;;;;;;20.42;100.00;101532.00;5109271;27;20043;-61
2022/08/05 02:32:56;;;;;;;8.10;3.60;;;;;;;20.45;100.00;101526.31;5115127;27;20096;-59
2022/08/05 02:35:26;;;;;;;8.38;3.17;;;;;;;20.45;100.00;101523.63;5104046;28;20135;-60
2022/08/05 02:38:05;;;;;;;7.05;3.47;;;;;;;20.45;100.00;101522.81;5112539;27;20055;-60
2022/08/05 02:40:36;;;;;;;11.18;3.85;;;;;;;20.44;100.00;101518.50;5089781;27;20496;-59
2022/08/05 02:43:05;;;;;;;9.95;4.20;;;;;;;20.44;100.00;101518.50;5103903;27;20048;-60
2022/08/05 02:45:34;;;;;;;12.15;4.00;;;;;;;20.41;100.00;101509.06;5117087;27;20339;-60
2022/08/05 02:48:21;;;;;;;6.07;3.13;;;;;;;20.37;100.00;101494.47;5121571;27;20048;-61
2022/08/05 02:50:58;;;;;;;7.15;3.38;;;;;;;20.30;100.00;101501.59;5105488;27;20127;-58
2022/08/05 02:53:26;;;;;;;8.73;4.03;;;;;;;20.30;100.00;101501.59;5114312;27;20146;-59
2022/08/05 02:55:55;;;;;;;6.20;3.00;;;;;;;20.32;100.00;101489.72;5104966;27;20062;-60
2022/08/05 02:58:28;;;;;;;8.07;3.92;;;;;;;20.34;100.00;101494.84;5112108;27;20055;-61
2022/08/05 03:00:59;;;;;;;6.15;3.70;;;;;;;20.33;100.00;101494.03;5103952;28;20138;-61
2022/08/05 03:03:28;;;;;;;8.30;4.30;;;;;;;20.29;100.00;101483.97;5106063;27;20134;-61
2022/08/05 03:06:16;;;;;;;9.70;4.60;;;;;;;20.21;100.00;101492.09;5108559;27;20051;-60
2022/08/05 03:09:03;;;;;;;10.48;3.67;;;;;;;20.17;100.00;101530.78;5099442;27;20285;-59
2022/08/05 03:11:30;;;;;;;9.45;4.13;;;;;;;20.14;100.00;101527.50;5109993;27;20151;-60
2022/08/05 03:14:16;;;;;;;5.43;3.60;;;;;;;20.14;100.00;101518.69;5107325;27;20082;-61
2022/08/05 03:16:44;;;;;;;7.68;4.13;;;;;;;20.15;100.00;101499.03;5104268;28;20349;-60
2022/08/05 03:19:11;;;;;;;6.90;3.20;;;;;;;20.11;100.00;101503.09;5107258;27;20051;-61
2022/08/05 03:21:58;;;;;;;12.55;4.63;;;;;;;20.14;100.00;101513.38;5099641;27;20055;-60
2022/08/05 03:24:25;;;;;;;9.65;4.13;;;;;;;20.10;100.00;101514.78;5111955;27;20481;-61
2022/08/05 03:26:59;;;;;;;7.38;3.90;;;;;;;20.05;100.00;101512.69;5099067;27;20055;-61
2022/08/05 03:29:25;;;;;;;8.05;3.63;;;;;;;20.07;100.00;101517.81;5111939;27;20168;-59
2022/08/05 03:32:14;;;;;;;7.13;3.70;;;;;;;20.03;100.00;101517.38;5104845;27;20055;-61
2022/08/05 03:34:42;;;;;;;7.47;3.92;;;;;;;20.04;100.00;101511.03;5101373;28;20237;-60
2022/08/05 03:37:18;;;;;;;7.93;3.72;;;;;;;20.04;100.00;101505.72;5091377;27;20146;-60
2022/08/05 03:39:56;;;;;;;8.20;4.15;;;;;;;20.08;100.00;101501.63;5110299;27;20051;-59
2022/08/05 03:42:27;;;;;;;6.57;4.00;;;;;;;20.05;100.00;101485.22;5104574;27;20050;-62
2022/08/05 03:44:55;;;;;;;12.20;4.30;;;;;;;20.06;100.00;101478.91;5087685;28;20675;-60
2022/08/05 03:47:22;;;;;;;10.30;4.10;;;;;;;20.06;100.00;101476.22;5101869;27;20418;-60
2022/08/05 03:49:49;;;;;;;8.27;3.85;;;;;;;20.02;100.00;101477.63;5109806;27;20055;-60
2022/08/05 03:52:28;;;;;;;;;;;;;;;20.06;100.00;101479.72;5107529;27;20053;-60
2022/08/05 03:55:23;;;;;;;11.20;4.00;;;;;;;20.03;100.00;101487.25;5106499;27;19927;-63
2022/08/05 03:58:14;;;;;;;6.47;4.05;;;;;;;19.98;100.00;101493.16;5094978;27;20062;-61
2022/08/05 04:00:44;;;;;;;7.78;4.22;;;;;;;19.93;100.00;101491.09;5113131;27;20059;-61
2022/08/05 04:03:18;;;;;;;6.60;4.03;;;;;;;19.88;100.00;101501.47;5119465;27;20058;-59
2022/08/05 04:05:56;;;;;;;12.35;4.22;;;;;;;19.90;100.00;101504.78;5111625;27;20134;-59
2022/08/05 04:08:26;;;;;;;7.75;3.88;;;;;;;19.89;100.00;101507.63;5104896;27;20130;-60
2022/08/05 04:11:02;;;;;;;9.02;4.40;;;;;;;19.88;100.00;101498.81;5108132;27;20047;-60
2022/08/05 04:13:30;;;;;;;8.60;3.55;;;;;;;19.91;100.00;101505.59;5087745;28;20097;-61
2022/08/05 04:16:16;;;;;;;8.57;3.72;;;;;;;19.95;100.00;101512.19;5106548;27;20480;-61
2022/08/05 04:18:58;;;;;;;8.60;3.72;;;;;;;19.97;100.00;101496.00;5095467;27;20066;-60
2022/08/05 04:21:25;;;;;;;8.15;3.72;;;;;;;19.93;100.00;101493.75;5109669;27;20388;-61
2022/08/05 04:24:12;;;;;;;7.93;3.50;;;;;;;19.96;100.00;101489.88;5098996;27;20354;-62
2022/08/05 04:26:47;;;;;;;5.88;3.95;;;;;;;19.94;100.00;101490.06;5106846;27;20522;-62
2022/08/05 04:29:13;;;;;;;9.88;3.90;;;;;;;19.96;100.00;101476.56;5107890;27;20138;-60
2022/08/05 04:31:40;;;;;;;8.73;3.47;;;;;;;19.95;100.00;101466.91;5099583;27;20051;-61
2022/08/05 04:34:08;;;;;;;10.82;4.35;;;;;;;19.95;100.00;101466.91;5097401;28;20047;-61
2022/08/05 04:36:55;;;;;;;11.40;3.88;;;;;;;19.92;100.00;101472.63;5113873;27;20062;-61
2022/08/05 04:39:21;;;;;;;8.27;4.30;;;;;;;19.87;100.00;101470.53;5105740;27;20055;-60
2022/08/05 04:41:48;;;;;;;10.05;4.10;;;;;;;19.85;100.00;101488.53;5112053;27;20074;-61
2022/08/05 04:44:17;;;;;;;7.80;3.63;;;;;;;19.84;100.00;101507.38;5106254;27;20066;-60
2022/08/05 04:46:57;;;;;;;8.63;3.30;;;;;;;19.82;100.00;101518.22;5092109;27;20134;-60
2022/08/05 04:49:25;;;;;;;9.80;3.58;;;;;;;19.80;100.00;101525.56;5118218;27;20074;-59
2022/08/05 04:52:11;;;;;;;8.73;3.57;;;;;;;19.82;100.00;101525.41;5102654;27;20098;-60
2022/08/05 04:54:37;;;;;;;7.32;3.50;;;;;;;19.76;100.00;101534.97;5108301;27;20055;-61
2022/08/05 04:57:04;;;;;;;9.23;3.60;;;;;;;19.75;100.00;101534.09;5096448;27;20054;-61
2022/08/05 04:59:30;;;;;;;10.88;3.47;;;;;;;19.75;100.00;101539.44;5095187;28;20105;-61
2022/08/05 05:02:04;;;;;;;8.18;3.65;;;;;;;19.77;100.00;101533.13;5101444;28;20144;-58
2022/08/05 05:04:51;;;;;;;5.95;2.90;;;;;;;19.79;100.00;101537.22;5103207;27;20410;-58
2022/08/05 05:07:27;;;;;;;6.20;3.40;;;;;;;19.83;100.00;101537.66;5101941;27;20054;-60
2022/08/05 05:09:57;;;;;;;6.30;3.40;;;;;;;19.86;100.00;101547.94;5092886;27;20058;-59
2022/08/05 05:12:23;;;;;;;4.65;2.60;;;;;;;19.87;100.00;101542.41;5103424;27;20260;-61
2022/08/05 05:14:52;;;;;;;7.97;3.53;;;;;;;19.89;100.00;101544.91;5093786;27;20056;-61
2022/08/05 05:17:19;;;;;;;9.82;3.35;;;;;;;19.85;100.00;101547.09;5113620;27;20055;-60
2022/08/05 05:19:54;;;;;;;9.38;2.92;;;;;;;19.87;100.00;101539.75;5106473;27;20105;-60
2022/08/05 05:22:22;;;;;;;7.70;3.17;;;;;;;19.89;100.00;101537.72;5101794;28;20135;-60
2022/08/05 05:24:55;;;;;;;5.13;2.75;;;;;;;19.98;100.00;101540.28;5100995;27;20536;-58
2022/08/05 05:27:27;;;;;;;7.88;2.70;;;;;;;20.00;100.00;101535.59;5094102;27;20060;-61
2022/08/05 05:30:15;;;;;;;6.85;3.50;;;;;;;20.00;100.00;101538.25;5110064;27;20058;-61
2022/08/05 05:32:58;;;;;;;6.13;2.78;;;;;;;20.02;100.00;101541.53;5111294;27;20081;-60
2022/08/05 05:35:30;;;;;;;7.70;3.42;;;;;;;19.99;100.00;101545.38;5116215;27;20475;-59
2022/08/05 05:38:05;;;;;;;7.30;2.83;;;;;;;19.99;100.00;101541.91;5111986;27;20061;-60
2022/08/05 05:40:35;;;;;;;8.32;3.28;;;;;;;20.01;100.00;101546.03;5097305;28;20606;-62
2022/08/05 05:43:02;;;;;;;7.03;3.30;;;;;;;20.01;100.00;101543.34;5096713;27;20478;-60
2022/08/05 05:45:28;;;;;;;6.90;2.95;;;;;;;20.03;100.00;101541.34;5101139;27;20052;-61
2022/08/05 05:47:57;;;;;;;6.47;2.63;;;;;;;20.07;100.00;101545.28;5115652;28;20526;-60
2022/08/05 05:50:35;;;;;;;6.63;2.75;;;;;;;20.07;100.00;101539.97;5102789;28;20507;-59
2022/08/05 05:53:12;;;;;;;6.93;3.00;;;;;;;20.11;100.00;101537.72;5103978;28;20047;-58
2022/08/05 05:55:48;;;;;;;;;;;;;;;20.12;100.00;101534.03;5100334;28;20499;-62
2022/08/05 05:58:26;;;;;;;;;;;;;;;20.10;100.00;101538.75;5104988;27;20742;-60
2022/08/05 06:01:00;;;;;;;4.45;3.03;;;;;;;20.06;100.00;101540.13;5107255;27;19923;-60
2022/08/05 06:03:41;;;;;;;9.07;3.05;;;;;;;20.06;100.00;101554.28;5110455;27;20054;-60
2022/08/05 06:06:28;;;;;;;7.38;3.40;;;;;;;20.04;100.00;101543.00;5100605;27;20409;-60
2022/08/05 06:09:01;;;;;;;12.05;3.20;;;;;;;20.04;100.00;101548.31;5133170;27;20051;-60
2022/08/05 06:11:30;;;;;;;7.85;2.95;;;;;;;20.06;100.00;101559.59;5113870;27;20100;-59
2022/08/05 06:13:56;;;;;;;8.38;3.25;;;;;;;20.09;100.00;101564.56;5111638;27;20051;-60
2022/08/05 06:16:26;;;;;;;6.47;2.80;;;;;;;20.10;100.00;101568.03;5117141;27;20043;-62
2022/08/05 06:19:03;;;;;;;7.20;2.53;;;;;;;20.14;100.00;101572.78;5106196;27;20060;-61
2022/08/05 06:21:32;;;;;;;4.95;2.25;;;;;;;20.12;100.00;101566.00;5105824;27;20115;-61
2022/08/05 06:24:05;;;;;;;5.57;2.60;;;;;;;20.23;100.00;101560.16;5100305;27;20047;-61
2022/08/05 06:26:36;;;;;;;7.57;2.67;;;;;;;20.24;100.00;101567.13;5104684;27;20062;-61
2022/08/05 06:29:04;;;;;;;7.50;2.50;;;;;;;20.30;100.00;101570.88;5100084;27;20157;-61
2022/08/05 06:31:50;;;;;;;6.80;2.70;;;;;;;20.28;100.00;101576.38;5104494;27;20378;-60
2022/08/05 06:34:16;;;;;;;5.68;2.40;;;;;;;20.24;100.00;101580.44;5116243;27;20058;-60
2022/08/05 06:36:45;;;;;;;7.40;2.38;;;;;;;20.28;100.00;101581.69;5106519;27;20051;-61
2022/08/05 06:39:24;;;;;;;6.97;2.53;;;;;;;20.32;100.00;101579.47;5117815;27;20714;-62
2022/08/05 06:41:54;;;;;;;8.10;2.35;;;;;;;20.33;100.00;101578.47;5105787;27;20054;-60
2022/08/05 06:44:23;;;;;;;9.40;2.65;;;;;;;20.31;100.00;101575.19;5116875;27;20094;-59
2022/08/05 06:46:51;;;;;;;3.38;1.88;;;;;;;20.31;100.00;101578.66;5109480;27;20043;-61
2022/08/05 06:49:19;;;;;;;5.88;2.67;;;;;;;20.38;100.00;101578.72;5111764;27;20051;-60
2022/08/05 06:52:06;;;;;;;9.43;2.38;;;;;;;20.43;100.00;101578.16;5099310;27;20054;-58
2022/08/05 06:54:32;;;;;;;8.68;2.40;;;;;;;20.44;100.00;101580.59;5103503;27;20070;-60
2022/08/05 06:57:01;;;;;;;6.25;2.38;;;;;;;20.42;100.00;101579.97;5115170;27;20058;-61
2022/08/05 06:59:47;;;;;;;8.85;2.70;;;;;;;20.43;100.00;101573.63;5110200;27;20062;-61
2022/08/05 07:02:23;;;;;;;6.38;2.55;;;;;;;20.45;100.00;101584.94;5111272;27;20127;-61
2022/08/05 07:04:50;;;;;;;9.45;2.35;;;;;;;20.46;100.00;101593.72;5112211;27;20486;-61
2022/08/05 07:07:17;;;;;;;8.60;2.47;;;;;;;20.46;100.00;101593.72;5112322;27;20043;-61
2022/08/05 07:10:04;;;;;;;5.53;1.88;;;;;;;20.49;100.00;101591.50;5101711;27;20504;-60
2022/08/05 07:18:24;;;;;;;3.95;1.88;;;;;;;20.65;100.00;101610.94;5123472;27;20161;-61
2022/08/05 07:20:56;;;;;;;8.38;2.45;;;;;;;20.71;100.00;101605.63;5107036;27;20886;-61
2022/08/05 07:23:22;;;;;;;6.85;2.20;;;;;;;20.75;100.00;101614.06;5104539;27;20526;-61
2022/08/05 07:25:55;;;;;;;3.53;1.65;;;;;;;20.84;100.00;101617.44;5098454;28;20039;-61
2022/08/05 07:28:23;;;;;;;6.53;1.90;;;;;;;20.90;100.00;101627.31;5095737;27;20047;-61
2022/08/05 07:30:50;;;;;;;5.80;2.10;;;;;;;20.90;100.00;101628.13;5118942;27;20287;-61
2022/08/05 07:33:20;;;;;;;5.75;2.03;;;;;;;20.98;100.00;101631.69;5101622;27;20680;-59
2022/08/05 07:36:03;;;;;;;10.40;2.17;;;;;;;21.09;100.00;101641.78;5105940;27;20146;-60
2022/08/05 07:38:46;;;;;;;10.35;2.47;;;;;;;21.08;100.00;101642.81;5101248;27;20047;-61
2022/08/05 07:41:18;;;;;;;;;;;;;;;21.19;100.00;101647.59;5110513;27;20104;-60
2022/08/05 07:44:06;;;;;;;3.88;1.55;;;;;;;21.30;100.00;101647.03;5113064;27;20304;-61
2022/08/05 07:46:44;;;;;;;5.88;2.45;;;;;;;21.36;100.00;101645.41;5104082;28;20464;-60
2022/08/05 07:49:14;;;;;;;5.65;2.38;;;;;;;21.41;100.00;101645.66;5114874;27;20074;-64
2022/08/05 07:51:43;;;;;;;5.57;1.92;;;;;;;21.46;100.00;101647.75;5110199;27;20328;-62
2022/08/05 07:54:25;;;;;;;6.90;2.10;;;;;;;21.50;100.00;101649.00;5106707;27;20055;-62
2022/08/05 07:56:57;;;;;;;5.15;1.70;;;;;;;21.50;100.00;101641.00;5108948;27;20048;-61
2022/08/05 07:59:43;;;;;;;6.13;1.60;;;;;;;21.52;100.00;101647.78;5117992;27;20510;-60
2022/08/05 08:02:14;;;;;;;3.28;1.48;;;;;;;21.45;100.00;101649.59;5099791;27;20092;-61
2022/08/05 08:04:47;;;;;;;4.22;1.65;;;;;;;21.46;100.00;101651.25;5113824;27;20096;-60
2022/08/05 08:07:16;;;;;;;4.78;1.90;;;;;;;21.33;100.00;101651.97;5105429;27;20040;-61
2022/08/05 08:09:47;;;;;;;5.63;1.85;;;;;;;21.49;100.00;101658.84;5109075;27;20054;-61
2022/08/05 08:12:17;;;;;;;5.45;1.48;;;;;;;21.53;100.00;101659.28;5106790;27;20047;-61
2022/08/05 08:15:05;;;;;;;7.28;1.75;;;;;;;21.60;100.00;101652.16;5110508;27;20054;-60
2022/08/05 08:17:43;;;;;;;4.83;1.57;;;;;;;21.71;100.00;101646.19;5104776;27;20051;-60
2022/08/05 08:20:18;;;;;;;2.15;1.08;;;;;;;21.73;100.00;101648.69;5091506;27;20284;-61
2022/08/05 08:23:06;;;;;;;3.75;1.25;;;;;;;21.85;100.00;101647.06;5109925;27;20518;-60
2022/08/05 08:25:52;;;;;;;3.55;1.15;;;;;;;21.98;100.00;101654.31;5112868;27;20058;-61
2022/08/05 08:28:26;;;;;;;5.00;1.20;;;;;;;22.08;100.00;101648.56;5114255;27;20055;-61
2022/08/05 08:31:04;;;;;;;4.07;1.30;;;;;;;22.15;100.00;101652.09;5098244;27;20477;-59
2022/08/05 08:33:31;;;;;;;6.45;1.27;;;;;;;22.18;100.00;101662.34;5098855;27;20536;-60
2022/08/05 08:36:05;;;;;;;7.35;1.42;;;;;;;22.29;100.00;101663.66;5093855;27;20075;-60
2022/08/05 08:38:54;;;;;;;5.20;1.25;;;;;;;22.40;99.49;101662.22;5113695;27;20058;-61
2022/08/05 08:41:23;;;;;;;5.18;1.20;;;;;;;22.50;98.86;101662.63;5105704;27;20060;-62
2022/08/05 08:44:14;;;;;;;3.25;1.33;;;;;;;22.61;99.74;101672.69;5106446;27;20050;-61
2022/08/05 08:47:03;;;;;;;3.47;1.10;;;;;;;22.77;98.45;101676.81;5099996;27;20051;-60
2022/08/05 08:49:52;;;;;;;4.28;1.23;;;;;;;22.84;97.81;101682.16;5110232;27;20051;-61
2022/08/05 08:52:40;;;;;;;3.50;1.27;;;;;;;22.92;97.56;101678.47;5115747;27;20053;-61
2022/08/05 08:55:13;;;;;;;3.25;1.42;;;;;;;22.89;97.59;101688.56;5113616;27;20076;-61
2022/08/05 08:57:46;;;;;;;1.80;1.10;;;;;;;22.84;98.23;101690.19;5113173;27;20087;-60
2022/08/05 09:00:24;;;;;;;5.60;1.35;;;;;;;22.67;95.65;101693.28;5095934;27;20047;-58
2022/08/05 09:02:52;;;;;;;6.32;1.50;;;;;;;22.66;96.19;101691.63;5106463;27;20291;-60
2022/08/05 09:05:19;;;;;;;3.67;1.23;;;;;;;22.62;98.01;101698.44;5108144;27;20047;-60
2022/08/05 09:08:07;;;;;;;4.40;1.30;;;;;;;22.49;94.39;101704.56;5102301;28;20054;-60
2022/08/05 09:10:35;;;;;;;3.47;1.23;;;;;;;22.42;95.45;101705.59;5099693;27;20058;-60
2022/08/05 09:13:05;;;;;;;5.88;1.50;;;;;;;22.39;96.28;101714.03;5107350;27;20078;-60
2022/08/05 09:15:33;;;;;;;2.90;0.90;;;;;;;22.41;99.60;101715.47;5099658;27;20511;-60
2022/08/05 09:18:04;;;;;;;4.75;1.00;;;;;;;;;;5092730;28;20082;-61
2022/08/05 09:20:34;;;;;;;2.63;1.10;;;;;;;22.43;97.47;101717.94;5108684;27;20058;-61
2022/08/05 09:23:04;;;;;;;2.13;1.30;;;;;;;22.37;98.44;101719.56;5096797;27;20850;-61
2022/08/05 09:25:35;;;;;;;3.25;1.60;;;;;;;22.36;96.86;101723.25;5102544;28;20112;-60
2022/08/05 09:28:24;;;;;;;4.20;1.20;;;;;;;22.45;100.00;101724.72;5076742;28;20047;-61
2022/08/05 09:31:07;;;;;;;1.33;0.98;;;;;;;22.47;94.35;101728.00;5102573;27;20130;-61
2022/08/05 09:33:59;;;;;;;2.67;1.00;;;;;;;22.50;96.99;101727.63;5098974;28;20512;-61
2022/08/05 09:36:45;;;;;;;4.47;1.20;;;;;;;22.57;95.42;101724.13;5106475;27;20061;-61
2022/08/05 09:39:24;;;;;;;;;;;;;;;22.64;88.57;101725.78;5101115;27;20062;-59
2022/08/05 09:42:12;;;;;;;2.42;1.10;;;;;;;22.89;88.99;101726.00;5110189;27;19976;-60
2022/08/05 09:44:50;;;;;;;1.05;0.60;;;;;;;23.04;74.25;101725.78;5098426;27;20082;-60
2022/08/05 09:47:19;;;;;;;5.10;0.80;;;;;;;23.41;77.50;101722.66;5101315;28;20066;-60
2022/08/05 09:49:51;;;;;;;1.63;0.60;;;;;;;23.57;72.38;101726.72;5101878;28;20446;-60
2022/08/05 09:52:33;;;;;;;1.65;0.57;;;;;;;23.95;72.69;101725.97;5116490;27;20050;-58
2022/08/05 09:55:03;;;;;;;1.15;0.70;;;;;;;24.22;67.88;101724.81;5099263;28;20360;-58
2022/08/05 09:57:50;;;;;;;1.95;0.80;;;;;;;24.60;71.52;101720.44;5095111;28;20055;-60
2022/08/05 10:00:24;;;;;;;1.95;0.70;;;;;;;24.84;71.96;101719.66;5101657;28;20277;-61
2022/08/05 10:02:56;;;;;;;0.93;0.60;;;;;;;25.05;69.11;101720.25;5112736;28;20047;-58
2022/08/05 10:05:26;;;;;;;2.47;0.95;;;;;;;25.58;73.02;101722.44;5108319;28;20105;-57
2022/08/05 10:07:54;;;;;;;3.28;1.20;;;;;;;25.87;67.76;101732.63;5097950;28;20072;-60
2022/08/05 10:10:43;;;;;;;0.80;0.80;;;;;;;25.70;61.92;101722.50;5101402;27;20063;-60
2022/08/05 10:13:11;;;;;;;2.60;1.00;;;;;;;25.59;63.47;101740.19;5113926;28;20055;-60
2022/08/05 10:15:40;;;;;;;2.05;0.60;;;;;;;25.45;66.40;101742.19;5113510;27;20146;-60
2022/08/05 10:18:10;;;;;;;2.33;0.70;;;;;;;25.23;64.46;101739.13;5115881;27;20748;-60
2022/08/05 10:20:43;;;;;;;1.13;0.57;;;;;;;25.18;63.45;101746.19;5111255;28;20057;-60
2022/08/05 10:23:16;;;;;;;3.75;0.73;;;;;;;25.06;63.73;101743.41;5098363;28;20075;-60
2022/08/05 10:26:09;;;;;;;2.30;1.08;;;;;;;24.97;64.06;101739.34;5089541;28;20051;-62
2022/08/05 10:28:44;;;;;;;1.27;0.80;;;;;;;24.97;61.34;101742.03;5114715;27;20593;-60
2022/08/05 10:31:16;;;;;;;1.55;0.60;;;;;;;24.99;63.45;101751.53;5100678;28;20127;-59
2022/08/05 10:34:03;;;;;;;1.85;0.70;;;;;;;24.87;61.90;101747.88;5110075;28;20055;-61
2022/08/05 10:36:38;;;;;;;3.25;0.77;;;;;;;24.88;63.93;101764.84;5102780;28;20173;-62
2022/08/05 10:39:11;;;;;;;1.48;0.60;;;;;;;24.78;63.24;101763.44;5092402;28;20085;-59
2022/08/05 10:42:10;;;;;;;1.70;0.68;;;;;;;24.71;61.36;101768.03;5108625;27;20059;-59
2022/08/05 10:44:42;;;;;;;2.55;0.73;;;;;;;24.64;59.91;101756.56;5101817;27;20541;-60
2022/08/05 10:47:11;;;;;;;1.67;0.73;;;;;;;24.79;61.49;101764.25;5109332;27;20554;-60
2022/08/05 10:50:15;;;;;;;2.50;0.60;;;;;;;24.97;60.41;101769.72;5094685;27;20501;-61
2022/08/05 10:53:01;;;;;;;3.20;0.70;;;;;;;24.93;59.36;101771.16;5119826;27;20314;-61
2022/08/05 10:55:31;;;;;;;3.08;0.73;;;;;;;25.06;61.80;101773.72;5097102;28;20052;-63
2022/08/05 10:58:19;;;;;;;1.67;0.50;;;;;;;25.42;58.59;101776.72;5116581;27;20047;-60
2022/08/05 11:00:46;;;;;;;1.27;0.57;;;;;;;25.71;58.35;101774.38;5098188;28;20053;-61
2022/08/05 11:03:20;;;;;;;2.67;0.80;;;;;;;26.03;58.31;101769.66;5106108;27;20087;-61
2022/08/05 11:06:09;;;;;;;1.88;0.50;;;;;;;26.36;55.15;101773.75;5108314;27;20086;-60
2022/08/05 11:09:10;;;;;;;1.75;0.70;;;;;;;26.63;56.12;101787.69;5114308;27;20445;-62
2022/08/05 11:11:43;;;;;;;4.13;1.10;;;;;;;26.54;54.84;101791.72;5112182;27;20107;-62
2022/08/05 11:14:31;;;;;;;1.75;0.80;;;;;;;26.39;53.14;101792.16;5104950;27;20054;-60
2022/08/05 11:17:28;;;;;;;2.15;0.80;;;;;;;26.23;54.03;101793.59;5103502;27;20043;-61
2022/08/05 11:20:36;;;;;;;2.05;0.60;;;;;;;26.11;53.61;101801.63;5099056;28;20051;-62
2022/08/05 11:23:42;;;;;;;1.60;0.60;;;;;;;26.06;55.16;101803.34;5102992;27;20035;-60
2022/08/05 11:26:29;;;;;;;3.28;0.60;;;;;;;25.82;50.67;101809.38;5116720;27;20048;-62
2022/08/05 11:29:03;;;;;;;1.00;0.50;;;;;;;25.92;51.02;101802.69;5096453;27;20067;-60
2022/08/05 11:31:40;;;;;;;1.85;0.68;;;;;;;25.89;48.91;101809.28;5100162;27;20427;-59
2022/08/05 11:34:40;;;;;;;2.10;0.60;;;;;;;26.09;50.64;101809.09;5096127;27;20514;-59
2022/08/05 11:37:38;;;;;;;1.73;0.50;;;;;;;25.87;47.44;101815.94;5117845;27;20129;-61
2022/08/05 11:40:57;;;;;;;0.98;0.60;;;;;;;25.92;49.07;101808.88;5107623;27;20370;-60
2022/08/05 11:43:57;;;;;;;5.05;0.70;;;;;;;25.99;49.38;101822.22;5111192;27;20059;-61
2022/08/05 11:46:48;;;;;;;2.65;0.77;;;;;;;26.07;47.42;101819.25;5098637;27;20514;-62
2022/08/05 11:49:34;;;;;;;2.13;0.70;;;;;;;26.04;48.55;101820.50;5115705;27;20059;-64
2022/08/05 11:52:09;;;;;;;2.70;0.63;;;;;;;26.19;49.99;101819.31;5096415;27;20511;-61
2022/08/05 11:54:39;;;;;;;2.40;0.52;;;;;;;26.22;47.04;101824.22;5112627;27;20051;-61
2022/08/05 11:57:07;;;;;;;2.10;0.70;;;;;;;26.46;47.07;101829.69;5102516;28;20554;-64
2022/08/05 11:59:53;;;;;;;1.13;0.50;;;;;;;26.63;47.46;101838.81;5097772;27;20143;-62
2022/08/05 12:02:31;;;;;;;1.60;0.60;;;;;;;26.77;49.00;101837.53;5098593;28;20048;-61
2022/08/05 12:05:02;;;;;;;3.78;0.80;;;;;;;26.53;47.33;101846.56;5109720;27;20490;-61
2022/08/05 12:07:35;;;;;;;2.97;0.70;;;;;;;26.80;48.82;101852.44;5106679;27;20455;-60
2022/08/05 12:10:29;;;;;;;1.50;0.60;;;;;;;26.95;48.62;101847.44;5105323;27;20059;-61